sensor_id;sensor_type;location;lat;lon;timestamp;pressure;altitude;pressure_sealevel;temperature;humidity
42247;BME280;27913;42.722;23.268;2024-02-23T00:01:47;94686.81;;;6.96;74.16
42247;BME280;27913;42.722;23.268;2024-02-23T00:04:12;94699.50;;;7.07;74.19
42247;BME280;27913;42.722;23.268;2024-02-23T00:06:38;94604.88;;;6.57;74.41
42247;BME280;27913;42.722;23.268;2024-02-23T00:09:04;94743.78;;;7.41;74.94
42247;BME280;27913;42.722;23.268;2024-02-23T00:11:29;94371.41;;;5.07;74.63
42247;BME280;27913;42.722;23.268;2024-02-23T00:13:55;94655.53;;;6.79;75.24
42247;BME280;27913;42.722;23.268;2024-02-23T00:16:21;94757.84;;;7.40;75.42
42247;BME280;27913;42.722;23.268;2024-02-23T00:18:47;94751.97;;;7.37;74.90
42247;BME280;27913;42.722;23.268;2024-02-23T00:21:12;94316.22;;;4.55;74.46
42247;BME280;27913;42.722;23.268;2024-02-23T00:23:38;94731.91;;;7.30;74.82
42247;BME280;27913;42.722;23.268;2024-02-23T00:26:03;94728.94;;;7.33;75.27
42247;BME280;27913;42.722;23.268;2024-02-23T00:28:29;94736.47;;;7.36;74.95
42247;BME280;27913;42.722;23.268;2024-02-23T00:30:55;94729.09;;;7.40;75.08
42247;BME280;27913;42.722;23.268;2024-02-23T00:33:20;94412.53;;;5.37;74.52
42247;BME280;27913;42.722;23.268;2024-02-23T00:35:46;94700.16;;;7.09;74.96
42247;BME280;27913;42.722;23.268;2024-02-23T00:38:11;94725.22;;;7.27;75.01
42247;BME280;27913;42.722;23.268;2024-02-23T00:40:37;94730.88;;;7.39;75.43
42247;BME280;27913;42.722;23.268;2024-02-23T00:43:04;94722.19;;;7.39;75.60
42247;BME280;27913;42.722;23.268;2024-02-23T00:45:29;94738.25;;;7.35;75.54
42247;BME280;27913;42.722;23.268;2024-02-23T00:47:55;94291.03;;;4.87;75.14
42247;BME280;27913;42.722;23.268;2024-02-23T00:50:22;94711.50;;;7.25;75.21
42247;BME280;27913;42.722;23.268;2024-02-23T00:52:49;94727.06;;;7.18;76.04
42247;BME280;27913;42.722;23.268;2024-02-23T00:55:14;94632.63;;;6.58;76.48
42247;BME280;27913;42.722;23.268;2024-02-23T00:57:40;94722.53;;;7.12;76.46
42247;BME280;27913;42.722;23.268;2024-02-23T01:00:06;94712.69;;;7.14;76.20
42247;BME280;27913;42.722;23.268;2024-02-23T01:05:07;94613.22;;;6.52;76.59
42247;BME280;27913;42.722;23.268;2024-02-23T01:07:34;94565.41;;;6.03;76.44
42247;BME280;27913;42.722;23.268;2024-02-23T01:10:00;94404.44;;;5.23;76.48
42247;BME280;27913;42.722;23.268;2024-02-23T01:12:26;94392.44;;;5.05;77.01
42247;BME280;27913;42.722;23.268;2024-02-23T01:14:54;94558.56;;;6.10;76.98
42247;BME280;27913;42.722;23.268;2024-02-23T01:17:20;94587.41;;;6.25;77.03
42247;BME280;27913;42.722;23.268;2024-02-23T01:19:50;94499.41;;;5.86;76.07
42247;BME280;27913;42.722;23.268;2024-02-23T01:22:18;94550.38;;;6.22;76.04
42247;BME280;27913;42.722;23.268;2024-02-23T01:24:45;94392.50;;;5.29;76.26
42247;BME280;27913;42.722;23.268;2024-02-23T01:27:13;94388.28;;;5.28;76.47
42247;BME280;27913;42.722;23.268;2024-02-23T01:29:41;94427.97;;;5.55;76.59
42247;BME280;27913;42.722;23.268;2024-02-23T01:32:17;94473.41;;;6.01;76.75
42247;BME280;27913;42.722;23.268;2024-02-23T01:34:48;94462.03;;;5.94;76.16
42247;BME280;27913;42.722;23.268;2024-02-23T01:37:14;94397.97;;;5.51;76.02
42247;BME280;27913;42.722;23.268;2024-02-23T01:39:48;94430.31;;;5.73;75.89
42247;BME280;27913;42.722;23.268;2024-02-23T01:42:23;94395.84;;;5.54;75.99
42247;BME280;27913;42.722;23.268;2024-02-23T01:44:52;94514.94;;;6.19;76.00
42247;BME280;27913;42.722;23.268;2024-02-23T01:47:36;94557.13;;;6.63;75.62
42247;BME280;27913;42.722;23.268;2024-02-23T01:50:20;94677.44;;;7.33;76.05
42247;BME280;27913;42.722;23.268;2024-02-23T01:52:48;94667.78;;;7.34;75.80
42247;BME280;27913;42.722;23.268;2024-02-23T01:55:27;94646.03;;;7.33;76.04
42247;BME280;27913;42.722;23.268;2024-02-23T01:58:05;94548.34;;;6.64;75.65
42247;BME280;27913;42.722;23.268;2024-02-23T02:00:44;94662.44;;;7.27;75.51
42247;BME280;27913;42.722;23.268;2024-02-23T02:03:47;94555.06;;;6.58;76.20
42247;BME280;27913;42.722;23.268;2024-02-23T02:06:26;94431.97;;;5.66;76.70
42247;BME280;27913;42.722;23.268;2024-02-23T02:09:05;94446.66;;;5.67;76.62
42247;BME280;27913;42.722;23.268;2024-02-23T02:11:47;94669.91;;;7.07;76.99
42247;BME280;27913;42.722;23.268;2024-02-23T02:14:23;94461.16;;;5.70;76.73
42247;BME280;27913;42.722;23.268;2024-02-23T02:16:59;94652.03;;;6.95;77.29
42247;BME280;27913;42.722;23.268;2024-02-23T02:19:28;94565.28;;;6.36;77.78
42247;BME280;27913;42.722;23.268;2024-02-23T02:22:04;94655.28;;;6.97;78.13
42247;BME280;27913;42.722;23.268;2024-02-23T02:24:40;94667.00;;;7.01;77.58
42247;BME280;27913;42.722;23.268;2024-02-23T02:27:28;94529.59;;;6.28;78.42
42247;BME280;27913;42.722;23.268;2024-02-23T02:30:22;94650.38;;;6.94;79.09
42247;BME280;27913;42.722;23.268;2024-02-23T02:32:50;94640.94;;;6.93;79.34
42247;BME280;27913;42.722;23.268;2024-02-23T02:35:35;94541.16;;;6.34;80.07
42247;BME280;27913;42.722;23.268;2024-02-23T02:38:03;94660.81;;;7.03;80.18
42247;BME280;27913;42.722;23.268;2024-02-23T02:40:28;94367.94;;;5.23;80.31
42247;BME280;27913;42.722;23.268;2024-02-23T02:43:07;94666.03;;;7.03;80.73
42247;BME280;27913;42.722;23.268;2024-02-23T02:45:33;94595.38;;;6.64;81.04
42247;BME280;27913;42.722;23.268;2024-02-23T02:48:02;94627.31;;;6.98;80.56
42247;BME280;27913;42.722;23.268;2024-02-23T02:50:33;94659.47;;;7.07;80.80
42247;BME280;27913;42.722;23.268;2024-02-23T02:53:11;94554.97;;;6.43;80.92
42247;BME280;27913;42.722;23.268;2024-02-23T02:55:50;94648.81;;;7.08;80.27
42247;BME280;27913;42.722;23.268;2024-02-23T02:58:18;94643.41;;;7.10;81.90
42247;BME280;27913;42.722;23.268;2024-02-23T03:00:43;94530.06;;;6.32;81.98
42247;BME280;27913;42.722;23.268;2024-02-23T03:03:09;94552.81;;;6.47;81.45
42247;BME280;27913;42.722;23.268;2024-02-23T03:05:37;94597.41;;;6.77;81.39
42247;BME280;27913;42.722;23.268;2024-02-23T03:08:05;94488.72;;;6.04;81.11
42247;BME280;27913;42.722;23.268;2024-02-23T03:10:31;94659.94;;;7.10;80.36
42247;BME280;27913;42.722;23.268;2024-02-23T03:13:09;94659.47;;;7.07;80.24
42247;BME280;27913;42.722;23.268;2024-02-23T03:15:45;94666.16;;;7.09;80.26
42247;BME280;27913;42.722;23.268;2024-02-23T03:18:21;94558.88;;;6.47;80.10
42247;BME280;27913;42.722;23.268;2024-02-23T03:21:02;94386.13;;;5.40;80.06
42247;BME280;27913;42.722;23.268;2024-02-23T03:23:48;94654.16;;;7.15;80.03
42247;BME280;27913;42.722;23.268;2024-02-23T03:26:16;94447.44;;;5.76;79.77
42247;BME280;27913;42.722;23.268;2024-02-23T03:28:42;94649.75;;;7.16;80.08
42247;BME280;27913;42.722;23.268;2024-02-23T03:31:23;94654.69;;;7.10;80.47
42247;BME280;27913;42.722;23.268;2024-02-23T03:34:08;94371.19;;;5.25;81.10
42247;BME280;27913;42.722;23.268;2024-02-23T03:39:43;94613.78;;;6.71;82.25
42247;BME280;27913;42.722;23.268;2024-02-23T03:42:21;94615.50;;;6.87;82.04
42247;BME280;27913;42.722;23.268;2024-02-23T03:45:01;94616.34;;;6.79;81.59
42247;BME280;27913;42.722;23.268;2024-02-23T03:47:42;94361.09;;;5.22;81.50
42247;BME280;27913;42.722;23.268;2024-02-23T03:50:18;94668.31;;;7.06;81.29
42247;BME280;27913;42.722;23.268;2024-02-23T03:52:56;94673.53;;;7.06;81.38
42247;BME280;27913;42.722;23.268;2024-02-23T03:55:34;94491.50;;;6.11;80.87
42247;BME280;27913;42.722;23.268;2024-02-23T03:58:00;94557.72;;;6.50;80.65
42247;BME280;27913;42.722;23.268;2024-02-23T04:00:30;94655.53;;;7.11;80.67
42247;BME280;27913;42.722;23.268;2024-02-23T04:03:09;94660.56;;;7.12;80.54
42247;BME280;27913;42.722;23.268;2024-02-23T04:05:45;94642.88;;;6.91;80.54
42247;BME280;27913;42.722;23.268;2024-02-23T04:08:13;94662.38;;;7.12;80.65
42247;BME280;27913;42.722;23.268;2024-02-23T04:10:49;94664.00;;;7.13;80.57
42247;BME280;27913;42.722;23.268;2024-02-23T04:13:17;94646.38;;;7.07;80.37
42247;BME280;27913;42.722;23.268;2024-02-23T04:15:43;94661.78;;;7.01;80.65
42247;BME280;27913;42.722;23.268;2024-02-23T04:18:09;94663.94;;;6.98;80.91
42247;BME280;27913;42.722;23.268;2024-02-23T04:20:35;94670.97;;;6.97;81.50
42247;BME280;27913;42.722;23.268;2024-02-23T04:23:01;94561.59;;;6.31;81.26
42247;BME280;27913;42.722;23.268;2024-02-23T04:25:31;94342.00;;;4.90;81.18
42247;BME280;27913;42.722;23.268;2024-02-23T04:28:15;94667.88;;;6.94;81.43
42247;BME280;27913;42.722;23.268;2024-02-23T04:30:43;94584.00;;;6.48;81.40
42247;BME280;27913;42.722;23.268;2024-02-23T04:33:18;94666.78;;;6.88;81.95
42247;BME280;27913;42.722;23.268;2024-02-23T04:35:44;94660.41;;;6.82;82.74
42247;BME280;27913;42.722;23.268;2024-02-23T04:38:10;94556.28;;;6.07;83.03
42247;BME280;27913;42.722;23.268;2024-02-23T04:40:36;94666.53;;;6.74;83.82
42247;BME280;27913;42.722;23.268;2024-02-23T04:43:01;94656.69;;;6.76;83.86
42247;BME280;27913;42.722;23.268;2024-02-23T04:45:28;94552.38;;;5.95;84.48
42247;BME280;27913;42.722;23.268;2024-02-23T04:47:53;94513.81;;;5.73;85.28
42247;BME280;27913;42.722;23.268;2024-02-23T04:50:19;94415.06;;;5.05;85.63
42247;BME280;27913;42.722;23.268;2024-02-23T04:52:44;94659.06;;;6.63;86.21
42247;BME280;27913;42.722;23.268;2024-02-23T04:55:10;94575.22;;;6.01;86.72
42247;BME280;27913;42.722;23.268;2024-02-23T04:57:38;94673.75;;;6.64;86.93
42247;BME280;27913;42.722;23.268;2024-02-23T05:00:16;94666.59;;;6.58;87.03
42247;BME280;27913;42.722;23.268;2024-02-23T05:02:50;94664.53;;;6.45;87.13
42247;BME280;27913;42.722;23.268;2024-02-23T05:05:34;94665.81;;;6.49;87.43
42247;BME280;27913;42.722;23.268;2024-02-23T05:08:03;94564.78;;;5.92;87.25
42247;BME280;27913;42.722;23.268;2024-02-23T05:11:09;94621.34;;;6.17;87.07
42247;BME280;27913;42.722;23.268;2024-02-23T05:13:45;94561.41;;;5.84;86.67
42247;BME280;27913;42.722;23.268;2024-02-23T05:16:23;94684.53;;;6.61;86.89
42247;BME280;27913;42.722;23.268;2024-02-23T05:19:37;94633.19;;;6.36;86.11
42247;BME280;27913;42.722;23.268;2024-02-23T05:22:15;94703.47;;;6.63;86.39
42247;BME280;27913;42.722;23.268;2024-02-23T05:25:16;94597.44;;;5.88;86.06
42247;BME280;27913;42.722;23.268;2024-02-23T05:27:52;94713.28;;;6.61;85.58
42247;BME280;27913;42.722;23.268;2024-02-23T05:30:19;94709.53;;;6.63;85.09
42247;BME280;27913;42.722;23.268;2024-02-23T05:32:45;94469.78;;;5.13;84.68
42247;BME280;27913;42.722;23.268;2024-02-23T05:35:13;94582.28;;;5.92;84.74
42247;BME280;27913;42.722;23.268;2024-02-23T05:37:40;94426.84;;;4.92;84.23
42247;BME280;27913;42.722;23.268;2024-02-23T05:40:06;94715.25;;;6.59;84.67
42247;BME280;27913;42.722;23.268;2024-02-23T05:42:36;94710.22;;;6.49;84.80
42247;BME280;27913;42.722;23.268;2024-02-23T05:45:02;94723.94;;;6.51;84.84
42247;BME280;27913;42.722;23.268;2024-02-23T05:47:33;94645.16;;;6.22;85.16
42247;BME280;27913;42.722;23.268;2024-02-23T05:49:58;94418.59;;;4.64;84.63
42247;BME280;27913;42.722;23.268;2024-02-23T05:52:33;94715.41;;;6.57;84.22
42247;BME280;27913;42.722;23.268;2024-02-23T05:55:17;94715.25;;;6.59;84.45
42247;BME280;27913;42.722;23.268;2024-02-23T05:57:55;94716.38;;;6.64;84.51
42247;BME280;27913;42.722;23.268;2024-02-23T06:00:24;94730.91;;;6.67;84.38
42247;BME280;27913;42.722;23.268;2024-02-23T06:03:07;94496.00;;;5.28;84.66
42247;BME280;27913;42.722;23.268;2024-02-23T06:05:45;94730.53;;;6.79;84.53
42247;BME280;27913;42.722;23.268;2024-02-23T06:08:38;94725.59;;;6.84;84.19
42247;BME280;27913;42.722;23.268;2024-02-23T06:11:17;94659.31;;;6.45;83.98
42247;BME280;27913;42.722;23.268;2024-02-23T06:14:05;94737.84;;;6.92;83.65
42247;BME280;27913;42.722;23.268;2024-02-23T06:16:40;94454.97;;;5.14;82.65
42247;BME280;27913;42.722;23.268;2024-02-23T06:19:26;94464.59;;;5.22;82.41
42247;BME280;27913;42.722;23.268;2024-02-23T06:22:04;94728.16;;;7.00;82.33
42247;BME280;27913;42.722;23.268;2024-02-23T06:24:51;94731.06;;;7.06;81.82
42247;BME280;27913;42.722;23.268;2024-02-23T06:30:52;94741.28;;;7.16;81.26
42247;BME280;27913;42.722;23.268;2024-02-23T06:33:40;94720.59;;;7.06;81.25
42247;BME280;27913;42.722;23.268;2024-02-23T06:36:31;94730.66;;;7.17;80.75
42247;BME280;27913;42.722;23.268;2024-02-23T06:39:26;94729.03;;;7.16;81.14
42247;BME280;27913;42.722;23.268;2024-02-23T06:42:14;94748.00;;;7.18;81.16
42247;BME280;27913;42.722;23.268;2024-02-23T06:44:50;94750.09;;;7.23;80.81
42247;BME280;27913;42.722;23.268;2024-02-23T06:47:28;94744.69;;;7.24;80.92
42247;BME280;27913;42.722;23.268;2024-02-23T06:50:14;94476.19;;;5.59;80.55
42247;BME280;27913;42.722;23.268;2024-02-23T06:52:53;94502.88;;;5.70;80.81
42247;BME280;27913;42.722;23.268;2024-02-23T06:55:33;94728.69;;;7.19;80.54
42247;BME280;27913;42.722;23.268;2024-02-23T06:58:10;94750.50;;;7.35;80.48
42247;BME280;27913;42.722;23.268;2024-02-23T07:00:48;94757.16;;;7.46;79.60
42247;BME280;27913;42.722;23.268;2024-02-23T07:03:29;94763.69;;;7.50;79.54
42247;BME280;27913;42.722;23.268;2024-02-23T07:06:24;94747.34;;;7.48;79.63
42247;BME280;27913;42.722;23.268;2024-02-23T07:09:20;94733.78;;;7.44;79.35
42247;BME280;27913;42.722;23.268;2024-02-23T07:12:01;94749.41;;;7.53;78.86
42247;BME280;27913;42.722;23.268;2024-02-23T07:14:40;94454.13;;;5.70;79.59
42247;BME280;27913;42.722;23.268;2024-02-23T07:17:18;94474.91;;;5.95;79.33
42247;BME280;27913;42.722;23.268;2024-02-23T07:20:13;94454.53;;;5.90;78.87
42247;BME280;27913;42.722;23.268;2024-02-23T07:22:52;94729.75;;;7.80;78.96
42247;BME280;27913;42.722;23.268;2024-02-23T07:25:36;94732.66;;;7.85;79.06
42247;BME280;27913;42.722;23.268;2024-02-23T07:28:21;94742.59;;;7.90;79.18
42247;BME280;27913;42.722;23.268;2024-02-23T07:31:02;94718.75;;;7.85;79.11
42247;BME280;27913;42.722;23.268;2024-02-23T07:33:40;94572.59;;;6.96;79.17
42247;BME280;27913;42.722;23.268;2024-02-23T07:36:28;94647.25;;;7.46;79.43
42247;BME280;27913;42.722;23.268;2024-02-23T07:39:07;94535.50;;;6.78;78.95
42247;BME280;27913;42.722;23.268;2024-02-23T07:41:35;94734.84;;;7.97;78.83
42247;BME280;27913;42.722;23.268;2024-02-23T07:44:18;94678.97;;;7.66;78.85
42247;BME280;27913;42.722;23.268;2024-02-23T07:46:54;94448.28;;;6.32;78.69
42247;BME280;27913;42.722;23.268;2024-02-23T07:49:30;94664.91;;;7.67;78.33
42247;BME280;27913;42.722;23.268;2024-02-23T07:52:09;94748.19;;;8.26;78.28
42247;BME280;27913;42.722;23.268;2024-02-23T07:54:35;94555.63;;;7.16;78.42
42247;BME280;27913;42.722;23.268;2024-02-23T07:57:20;94742.50;;;8.37;78.52
42247;BME280;27913;42.722;23.268;2024-02-23T08:02:58;94735.09;;;8.41;78.80
42247;BME280;27913;42.722;23.268;2024-02-23T08:06:00;94726.69;;;8.45;79.26
42247;BME280;27913;42.722;23.268;2024-02-23T08:11:44;94742.19;;;8.70;78.45
42247;BME280;27913;42.722;23.268;2024-02-23T08:14:30;94554.72;;;7.62;78.20
42247;BME280;27913;42.722;23.268;2024-02-23T08:20:32;94689.03;;;8.46;78.15
42247;BME280;27913;42.722;23.268;2024-02-23T08:23:56;94645.13;;;8.18;78.69
42247;BME280;27913;42.722;23.268;2024-02-23T08:26:34;94736.47;;;8.82;78.45
42247;BME280;27913;42.722;23.268;2024-02-23T08:29:38;94485.66;;;7.33;78.41
42247;BME280;27913;42.722;23.268;2024-02-23T08:32:24;94625.59;;;8.36;78.02
42247;BME280;27913;42.722;23.268;2024-02-23T08:35:12;94667.59;;;8.73;77.83
42247;BME280;27913;42.722;23.268;2024-02-23T08:37:54;94606.22;;;8.67;75.32
42247;BME280;27913;42.722;23.268;2024-02-23T08:40:32;94621.91;;;8.82;74.51
42247;BME280;27913;42.722;23.268;2024-02-23T08:43:28;94619.44;;;9.18;75.16
42247;BME280;27913;42.722;23.268;2024-02-23T08:46:13;94449.63;;;8.17;72.89
42247;BME280;27913;42.722;23.268;2024-02-23T08:48:56;94697.19;;;9.91;72.99
42247;BME280;27913;42.722;23.268;2024-02-23T08:54:30;94635.97;;;9.91;70.34
42247;BME280;27913;42.722;23.268;2024-02-23T08:57:06;94726.19;;;10.56;69.66
42247;BME280;27913;42.722;23.268;2024-02-23T08:59:52;94448.16;;;8.96;70.26
42247;BME280;27913;42.722;23.268;2024-02-23T09:02:30;94724.72;;;10.89;70.48
42247;BME280;27913;42.722;23.268;2024-02-23T09:05:09;94492.22;;;9.64;68.09
42247;BME280;27913;42.722;23.268;2024-02-23T09:07:48;94720.78;;;11.20;67.96
42247;BME280;27913;42.722;23.268;2024-02-23T09:10:24;94489.44;;;9.79;68.00
42247;BME280;27913;42.722;23.268;2024-02-23T09:13:02;94727.53;;;11.50;65.51
42247;BME280;27913;42.722;23.268;2024-02-23T09:15:37;94726.97;;;11.68;64.85
42247;BME280;27913;42.722;23.268;2024-02-23T09:18:03;94670.63;;;11.48;64.94
42247;BME280;27913;42.722;23.268;2024-02-23T09:20:29;94562.03;;;10.99;63.57
42247;BME280;27913;42.722;23.268;2024-02-23T09:23:21;94560.63;;;11.17;63.76
42247;BME280;27913;42.722;23.268;2024-02-23T09:25:54;94640.47;;;11.78;63.31
42247;BME280;27913;42.722;23.268;2024-02-23T09:28:19;94611.47;;;11.78;62.00
42247;BME280;27913;42.722;23.268;2024-02-23T09:30:57;94620.97;;;12.00;60.84
42247;BME280;27913;42.722;23.268;2024-02-23T09:33:45;94722.50;;;12.70;61.12
42247;BME280;27913;42.722;23.268;2024-02-23T09:36:20;94453.72;;;11.16;60.65
42247;BME280;27913;42.722;23.268;2024-02-23T09:38:58;94522.34;;;11.62;60.48
42247;BME280;27913;42.722;23.268;2024-02-23T09:41:34;94610.22;;;12.15;59.98
42247;BME280;27913;42.722;23.268;2024-02-23T09:44:01;94447.88;;;11.20;59.87
42247;BME280;27913;42.722;23.268;2024-02-23T09:49:59;94717.91;;;13.04;58.86
42247;BME280;27913;42.722;23.268;2024-02-23T09:52:52;94708.59;;;12.95;59.35
42247;BME280;27913;42.722;23.268;2024-02-23T09:55:36;94526.53;;;11.90;57.90
42247;BME280;27913;42.722;23.268;2024-02-23T09:58:23;94719.47;;;13.19;57.86
42247;BME280;27913;42.722;23.268;2024-02-23T10:01:01;94701.59;;;13.21;57.99
42247;BME280;27913;42.722;23.268;2024-02-23T10:03:56;94650.53;;;13.02;57.09
42247;BME280;27913;42.722;23.268;2024-02-23T10:06:36;94699.59;;;13.49;57.45
42247;BME280;27913;42.722;23.268;2024-02-23T10:09:14;94708.91;;;13.65;56.46
42247;BME280;27913;42.722;23.268;2024-02-23T10:11:53;94671.25;;;13.70;55.87
42247;BME280;27913;42.722;23.268;2024-02-23T10:14:52;94677.94;;;13.72;55.92
42247;BME280;27913;42.722;23.268;2024-02-23T10:17:49;94511.22;;;12.72;54.11
42247;BME280;27913;42.722;23.268;2024-02-23T10:20:25;94467.94;;;12.47;53.68
42247;BME280;27913;42.722;23.268;2024-02-23T10:26:09;94604.31;;;13.50;53.85
42247;BME280;27913;42.722;23.268;2024-02-23T10:28:40;94645.81;;;13.75;53.78
42247;BME280;27913;42.722;23.268;2024-02-23T10:31:21;94664.34;;;13.94;53.37
42247;BME280;27913;42.722;23.268;2024-02-23T10:33:59;94703.78;;;13.96;53.12
42247;BME280;27913;42.722;23.268;2024-02-23T10:36:40;94413.97;;;12.11;52.97
42247;BME280;27913;42.722;23.268;2024-02-23T10:39:17;94681.78;;;13.76;53.78
42247;BME280;27913;42.722;23.268;2024-02-23T10:42:07;94568.88;;;13.07;54.34
42247;BME280;27913;42.722;23.268;2024-02-23T10:44:55;94587.69;;;13.11;54.14
42247;BME280;27913;42.722;23.268;2024-02-23T10:47:51;94620.91;;;13.25;55.17
42247;BME280;27913;42.722;23.268;2024-02-23T10:50:50;94613.13;;;13.37;54.56
42247;BME280;27913;42.722;23.268;2024-02-23T10:53:37;94429.13;;;12.22;53.68
42247;BME280;27913;42.722;23.268;2024-02-23T10:56:20;94653.34;;;13.72;54.57
42247;BME280;27913;42.722;23.268;2024-02-23T10:59:09;94653.13;;;13.73;54.63
42247;BME280;27913;42.722;23.268;2024-02-23T11:01:49;94646.75;;;13.81;54.14
42247;BME280;27913;42.722;23.268;2024-02-23T11:04:57;94534.72;;;13.12;53.41
42247;BME280;27913;42.722;23.268;2024-02-23T11:07:38;94486.63;;;12.78;53.39
42247;BME280;27913;42.722;23.268;2024-02-23T11:10:21;94563.38;;;13.09;54.14
42247;BME280;27913;42.722;23.268;2024-02-23T11:13:08;94639.00;;;13.61;55.19
42247;BME280;27913;42.722;23.268;2024-02-23T11:15:44;94637.97;;;13.62;54.33
42247;BME280;27913;42.722;23.268;2024-02-23T11:18:32;94622.31;;;13.60;54.45
42247;BME280;27913;42.722;23.268;2024-02-23T11:21:12;94629.25;;;13.61;54.39
42247;BME280;27913;42.722;23.268;2024-02-23T11:24:03;94614.78;;;13.64;53.89
42247;BME280;27913;42.722;23.268;2024-02-23T11:30:02;94369.66;;;12.33;52.92
42247;BME280;27913;42.722;23.268;2024-02-23T11:33:07;94499.34;;;13.13;53.21
42247;BME280;27913;42.722;23.268;2024-02-23T11:35:53;94507.22;;;13.20;53.64
42247;BME280;27913;42.722;23.268;2024-02-23T11:38:42;94359.41;;;12.18;53.02
42247;BME280;27913;42.722;23.268;2024-02-23T11:41:27;94445.44;;;12.77;53.03
42247;BME280;27913;42.722;23.268;2024-02-23T11:44:04;94362.91;;;12.37;52.36
42247;BME280;27913;42.722;23.268;2024-02-23T11:46:40;94605.13;;;14.02;52.19
42247;BME280;27913;42.722;23.268;2024-02-23T11:49:16;94549.03;;;13.74;50.79
42247;BME280;27913;42.722;23.268;2024-02-23T11:51:53;94344.78;;;12.48;51.49
42247;BME280;27913;42.722;23.268;2024-02-23T11:54:50;94589.75;;;14.11;51.55
42247;BME280;27913;42.722;23.268;2024-02-23T11:57:33;94456.09;;;13.14;52.14
42247;BME280;27913;42.722;23.268;2024-02-23T12:00:15;94506.41;;;13.45;52.17
42247;BME280;27913;42.722;23.268;2024-02-23T12:02:54;94586.94;;;13.87;51.88
42247;BME280;27913;42.722;23.268;2024-02-23T12:05:38;94437.78;;;12.94;52.15
42247;BME280;27913;42.722;23.268;2024-02-23T12:08:16;94578.41;;;13.85;52.47
42247;BME280;27913;42.722;23.268;2024-02-23T12:10:54;94576.75;;;13.91;52.00
42247;BME280;27913;42.722;23.268;2024-02-23T12:13:48;94480.84;;;13.39;51.71
42247;BME280;27913;42.722;23.268;2024-02-23T12:16:25;94483.50;;;14.21;49.56
42247;BME280;27913;42.722;23.268;2024-02-23T12:19:01;94566.53;;;15.43;47.64
42247;BME280;27913;42.722;23.268;2024-02-23T12:21:43;94570.09;;;15.37;47.34
42247;BME280;27913;42.722;23.268;2024-02-23T12:24:20;94482.63;;;14.39;48.36
42247;BME280;27913;42.722;23.268;2024-02-23T12:27:18;94481.88;;;14.01;49.13
42247;BME280;27913;42.722;23.268;2024-02-23T12:29:54;94562.34;;;14.43;49.26
42247;BME280;27913;42.722;23.268;2024-02-23T12:32:33;94564.94;;;14.31;49.88
42247;BME280;27913;42.722;23.268;2024-02-23T12:35:01;94581.09;;;14.22;50.17
42247;BME280;27913;42.722;23.268;2024-02-23T12:37:36;94567.81;;;14.10;50.16
42247;BME280;27913;42.722;23.268;2024-02-23T12:40:10;94424.38;;;13.21;49.79
42247;BME280;27913;42.722;23.268;2024-02-23T12:42:44;94509.56;;;13.80;50.08
42247;BME280;27913;42.722;23.268;2024-02-23T12:45:28;94461.63;;;13.57;49.90
42247;BME280;27913;42.722;23.268;2024-02-23T12:48:10;94534.31;;;14.04;49.68
42247;BME280;27913;42.722;23.268;2024-02-23T12:51:03;94543.44;;;14.08;49.68
42247;BME280;27913;42.722;23.268;2024-02-23T12:53:48;94452.03;;;13.37;49.21
42247;BME280;27913;42.722;23.268;2024-02-23T12:56:23;94446.44;;;13.52;48.82
42247;BME280;27913;42.722;23.268;2024-02-23T12:59:18;94502.53;;;13.92;48.64
42247;BME280;27913;42.722;23.268;2024-02-23T13:01:54;94536.97;;;14.23;48.26
42247;BME280;27913;42.722;23.268;2024-02-23T13:04:41;94525.50;;;14.29;48.52
42247;BME280;27913;42.722;23.268;2024-02-23T13:07:15;94534.03;;;14.31;48.44
42247;BME280;27913;42.722;23.268;2024-02-23T13:09:42;94537.63;;;14.37;47.79
42247;BME280;27913;42.722;23.268;2024-02-23T13:12:18;94545.03;;;14.47;47.22
42247;BME280;27913;42.722;23.268;2024-02-23T13:15:03;94372.88;;;13.49;46.86
42247;BME280;27913;42.722;23.268;2024-02-23T13:17:53;94524.81;;;14.53;46.56
42247;BME280;27913;42.722;23.268;2024-02-23T13:20:30;94545.53;;;14.56;46.95
42247;BME280;27913;42.722;23.268;2024-02-23T13:23:10;94507.78;;;14.30;47.21
42247;BME280;27913;42.722;23.268;2024-02-23T13:25:52;94292.66;;;12.94;47.15
42247;BME280;27913;42.722;23.268;2024-02-23T13:28:30;94531.34;;;14.50;46.98
42247;BME280;27913;42.722;23.268;2024-02-23T13:31:10;94307.59;;;13.00;47.34
42247;BME280;27913;42.722;23.268;2024-02-23T13:33:46;94298.50;;;12.96;47.51
42247;BME280;27913;42.722;23.268;2024-02-23T13:36:42;94505.13;;;14.79;75.60
42247;BME280;27913;42.722;23.268;2024-02-23T13:39:21;94526.38;;;14.72;48.50
42247;BME280;27913;42.722;23.268;2024-02-23T13:41:46;94378.03;;;13.82;47.89
42247;BME280;27913;42.722;23.268;2024-02-23T13:44:12;94528.59;;;14.76;48.09
42247;BME280;27913;42.722;23.268;2024-02-23T13:46:40;94536.63;;;14.69;48.03
42247;BME280;27913;42.722;23.268;2024-02-23T13:49:07;94438.13;;;14.05;48.10
42247;BME280;27913;42.722;23.268;2024-02-23T13:51:38;94540.28;;;14.68;47.76
42247;BME280;27913;42.722;23.268;2024-02-23T13:54:04;94303.84;;;13.27;47.46
42247;BME280;27913;42.722;23.268;2024-02-23T13:56:29;94324.03;;;13.59;47.13
42247;BME280;27913;42.722;23.268;2024-02-23T13:58:55;94546.00;;;15.14;46.41
42247;BME280;27913;42.722;23.268;2024-02-23T14:01:21;94428.28;;;14.55;45.82
42247;BME280;27913;42.722;23.268;2024-02-23T14:03:46;94379.69;;;14.25;45.46
42247;BME280;27913;42.722;23.268;2024-02-23T14:06:12;94543.50;;;15.43;45.36
42247;BME280;27913;42.722;23.268;2024-02-23T14:08:37;94398.66;;;14.65;44.97
42247;BME280;27913;42.722;23.268;2024-02-23T14:11:05;94541.66;;;15.80;44.57
42247;BME280;27913;42.722;23.268;2024-02-23T14:13:36;94409.41;;;15.18;44.04
42247;BME280;27913;42.722;23.268;2024-02-23T14:16:11;94525.78;;;16.04;43.28
42247;BME280;27913;42.722;23.268;2024-02-23T14:18:37;94530.13;;;15.98;42.72
42247;BME280;27913;42.722;23.268;2024-02-23T14:21:15;94526.91;;;16.08;42.33